Time;durP1;ratioP1;P1;durP2;ratioP2;P2;SDS_P1;SDS_P2;PMS_P1;PMS_P2;Temp;Humidity;BMP_temperature;BMP_pressure;BME280_temperature;BME280_humidity;BME280_pressure;Samples;Min_cycle;Max_cycle;Signal;HPM_P1;HPM_P2
2023/08/31 00:02:13;;;;;;;6.90;2.50;;;15.40;74.30;;;;;;5016865;28;20026;-65
2023/08/31 00:04:39;;;;;;;4.78;2.08;;;15.40;75.10;;;;;;5016292;28;20183;-65
2023/08/31 00:07:05;;;;;;;4.63;2.20;;;15.40;74.50;;;;;;5015517;28;20030;-65
2023/08/31 00:09:31;;;;;;;4.40;2.22;;;15.40;74.50;;;;;;5020684;28;20021;-65
2023/08/31 00:11:57;;;;;;;4.20;1.98;;;15.40;74.60;;;;;;5014361;28;20336;-65
2023/08/31 00:14:23;;;;;;;6.32;2.30;;;15.40;74.70;;;;;;5014182;28;20033;-65
2023/08/31 00:16:50;;;;;;;5.72;2.35;;;15.40;74.80;;;;;;5019240;28;20030;-65
2023/08/31 00:19:16;;;;;;;5.05;2.38;;;15.40;74.80;;;;;;5013349;28;20471;-65
2023/08/31 00:21:42;;;;;;;5.82;2.00;;;15.30;74.90;;;;;;5022066;28;20121;-65
2023/08/31 00:24:09;;;;;;;5.25;2.25;;;15.30;75.00;;;;;;5020273;28;20435;-65
2023/08/31 00:26:40;;;;;;;5.45;2.15;;;15.30;75.10;;;;;;5047707;28;20109;-65
2023/08/31 00:29:06;;;;;;;4.53;2.28;;;15.30;75.20;;;;;;5017450;28;20113;-65
2023/08/31 00:31:33;;;;;;;5.18;2.20;;;15.30;75.20;;;;;;5015848;28;20025;-65
2023/08/31 00:34:04;;;;;;;4.85;2.10;;;15.30;75.30;;;;;;5050985;28;20018;-65
2023/08/31 00:36:33;;;;;;;4.73;2.27;;;15.30;75.50;;;;;;5022220;28;20044;-65
2023/08/31 00:39:05;;;;;;;5.70;2.30;;;15.30;75.50;;;;;;5035366;28;20319;-65
2023/08/31 00:41:31;;;;;;;5.90;2.20;;;15.30;75.60;;;;;;5025770;28;20025;-66
2023/08/31 00:43:57;;;;;;;5.22;2.10;;;15.20;75.60;;;;;;5020887;28;20039;-65
2023/08/31 00:46:23;;;;;;;5.88;2.42;;;15.20;75.60;;;;;;5024164;28;20107;-65
2023/08/31 00:48:48;;;;;;;5.93;2.50;;;15.30;75.70;;;;;;5046063;28;20084;-65
2023/08/31 00:51:15;;;;;;;4.95;2.03;;;15.20;75.70;;;;;;5036049;28;20375;-65
2023/08/31 00:53:41;;;;;;;4.72;2.10;;;15.20;75.90;;;;;;5016862;28;20034;-65
2023/08/31 00:56:08;;;;;;;5.68;2.17;;;15.20;75.90;;;;;;5048887;28;20096;-65
2023/08/31 00:58:34;;;;;;;6.32;2.40;;;15.20;75.90;;;;;;5020249;28;20040;-65
2023/08/31 01:01:30;;;;;;;5.63;2.33;;;15.20;76.00;;;;;;5018915;28;20025;-65
2023/08/31 01:04:47;;;;;;;6.75;2.55;;;15.20;76.00;;;;;;5045513;28;20025;-65
2023/08/31 01:07:32;;;;;;;6.40;3.20;;;15.20;75.90;;;;;;5011641;28;20388;-65
2023/08/31 01:10:24;;;;;;;7.15;3.40;;;15.20;76.00;;;;;;5025234;28;20033;-65
2023/08/31 01:12:59;;;;;;;7.20;3.50;;;15.20;76.10;;;;;;5018231;28;20021;-65
2023/08/31 01:15:26;;;;;;;8.88;3.72;;;15.10;76.10;;;;;;5017418;28;20513;-65
2023/08/31 01:17:54;;;;;;;9.52;3.70;;;15.10;76.20;;;;;;5018453;28;20486;-65
2023/08/31 01:20:38;;;;;;;8.93;4.40;;;15.10;76.20;;;;;;5017700;28;20026;-65
2023/08/31 01:23:15;;;;;;;9.05;3.88;;;15.10;76.20;;;;;;5033552;28;20025;-65
2023/08/31 01:25:43;;;;;;;8.05;4.82;;;15.10;76.30;;;;;;5021800;28;20026;-65
2023/08/31 01:28:10;;;;;;;9.13;4.50;;;15.10;76.30;;;;;;5012727;28;20045;-65
2023/08/31 01:30:36;;;;;;;7.47;4.57;;;15.10;76.30;;;;;;5019342;28;20347;-65
2023/08/31 01:33:02;;;;;;;10.43;5.13;;;15.10;76.40;;;;;;5030333;28;20030;-65
2023/08/31 01:35:34;;;;;;;9.20;5.03;;;15.10;76.40;;;;;;5017142;28;20022;-65
2023/08/31 01:38:03;;;;;;;11.65;5.47;;;15.10;76.50;;;;;;5015181;28;20030;-65
2023/08/31 01:40:54;;;;;;;11.23;5.85;;;15.00;76.50;;;;;;5048892;28;20113;-65
2023/08/31 01:43:21;;;;;;;10.35;5.47;;;15.10;76.60;;;;;;5016907;28;20107;-65
2023/08/31 01:45:48;;;;;;;11.90;5.85;;;15.00;76.60;;;;;;5017069;28;20030;-65
2023/08/31 01:48:15;;;;;;;10.45;5.68;;;15.00;76.60;;;;;;5018544;28;20022;-65
2023/08/31 01:50:41;;;;;;;11.07;6.43;;;15.10;76.80;;;;;;5017341;28;20037;-65
2023/08/31 01:53:06;;;;;;;10.48;6.10;;;15.10;76.80;;;;;;5019608;28;20338;-65
2023/08/31 01:55:33;;;;;;;11.00;6.32;;;15.10;76.90;;;;;;5032743;28;20026;-65
2023/08/31 01:57:59;;;;;;;11.65;6.22;;;15.10;76.90;;;;;;5048593;28;20514;-65
2023/08/31 02:00:28;;;;;;;9.35;5.97;;;15.10;77.00;;;;;;5043663;28;20384;-65
2023/08/31 02:02:55;;;;;;;10.13;6.57;;;15.10;77.10;;;;;;5030377;28;20033;-65
2023/08/31 02:05:21;;;;;;;11.88;7.03;;;15.10;77.10;;;;;;5014637;28;20026;-65
2023/08/31 02:07:46;;;;;;;12.10;6.60;;;15.10;77.10;;;;;;4995884;28;20030;-65
2023/08/31 02:10:12;;;;;;;10.07;6.13;;;15.10;77.20;;;;;;5049054;28;20359;-65
2023/08/31 02:12:38;;;;;;;10.88;6.68;;;15.10;77.20;;;;;;5021302;28;20026;-65
2023/08/31 02:15:07;;;;;;;10.60;6.55;;;15.10;77.10;;;;;;5045520;28;20025;-65
2023/08/31 02:17:36;;;;;;;9.02;6.38;;;15.10;77.20;;;;;;5016573;28;20037;-65
2023/08/31 02:20:04;;;;;;;11.02;7.15;;;15.10;77.20;;;;;;5017976;28;20034;-65
2023/08/31 02:22:33;;;;;;;10.57;7.45;;;15.10;77.20;;;;;;5018396;28;20030;-65
2023/08/31 02:24:58;;;;;;;10.05;6.35;;;15.10;77.20;;;;;;5011778;28;20120;-65
2023/08/31 02:27:24;;;;;;;10.95;6.85;;;15.10;77.20;;;;;;5013598;28;20176;-65
2023/08/31 02:29:50;;;;;;;9.77;6.38;;;15.10;77.30;;;;;;5042985;28;20076;-65
2023/08/31 02:32:16;;;;;;;10.65;6.93;;;15.10;77.30;;;;;;5018797;28;20021;-65
2023/08/31 02:34:41;;;;;;;11.73;7.35;;;15.10;77.30;;;;;;5015103;28;20060;-65
2023/08/31 02:37:07;;;;;;;11.60;7.28;;;15.10;77.30;;;;;;4998989;28;20171;-65
2023/08/31 02:39:33;;;;;;;11.45;7.43;;;15.10;77.30;;;;;;5018118;28;20124;-65
2023/08/31 02:41:59;;;;;;;11.23;6.97;;;15.10;77.40;;;;;;5049397;28;20041;-65
2023/08/31 02:44:24;;;;;;;11.48;7.35;;;15.10;77.50;;;;;;5018285;28;20379;-65
2023/08/31 02:46:50;;;;;;;11.88;8.35;;;15.10;77.50;;;;;;5017036;28;20025;-65
2023/08/31 02:49:16;;;;;;;10.43;6.65;;;15.10;77.60;;;;;;5012011;28;20029;-65
2023/08/31 02:51:41;;;;;;;11.50;7.35;;;15.20;77.60;;;;;;5017871;28;20018;-65
2023/08/31 02:54:07;;;;;;;11.10;7.70;;;15.20;77.70;;;;;;5017976;28;20455;-65
2023/08/31 02:56:33;;;;;;;11.23;7.90;;;15.20;77.80;;;;;;5016350;28;20466;-65
2023/08/31 02:58:59;;;;;;;12.10;7.78;;;15.20;77.80;;;;;;5022201;28;20061;-65
2023/08/31 03:01:25;;;;;;;12.13;8.27;;;15.10;77.80;;;;;;5016721;28;20056;-65
2023/08/31 03:03:51;;;;;;;12.15;8.13;;;15.20;78.00;;;;;;5048186;28;20355;-65
2023/08/31 03:06:18;;;;;;;12.95;8.38;;;15.20;78.00;;;;;;5048809;28;20117;-65
2023/08/31 03:08:44;;;;;;;14.43;8.65;;;15.20;78.10;;;;;;5017229;28;20109;-65
2023/08/31 03:11:14;;;;;;;13.30;9.30;;;15.20;78.10;;;;;;5036659;28;20039;-65
2023/08/31 03:13:39;;;;;;;13.48;9.50;;;15.20;78.00;;;;;;5024454;28;20033;-65
2023/08/31 03:16:05;;;;;;;12.13;8.52;;;15.30;78.00;;;;;;5048928;28;20091;-65
2023/08/31 03:18:31;;;;;;;13.35;10.00;;;15.20;78.00;;;;;;5053756;28;20030;-65
2023/08/31 03:20:57;;;;;;;12.70;9.20;;;15.30;78.10;;;;;;5019250;28;20121;-65
2023/08/31 03:23:24;;;;;;;12.88;9.85;;;15.30;78.10;;;;;;5050696;28;20096;-65
2023/08/31 03:25:50;;;;;;;15.13;9.73;;;15.30;78.10;;;;;;5023015;28;20045;-65
2023/08/31 03:28:16;;;;;;;12.48;9.57;;;15.30;78.20;;;;;;5020429;28;20076;-65
2023/08/31 03:30:44;;;;;;;13.07;9.98;;;15.30;78.20;;;;;;5016536;28;20021;-65
2023/08/31 03:33:12;;;;;;;12.90;9.20;;;15.30;78.20;;;;;;5017732;28;20087;-65
2023/08/31 03:35:38;;;;;;;12.68;9.27;;;15.30;78.30;;;;;;5030546;28;20018;-65
2023/08/31 03:38:03;;;;;;;14.18;9.88;;;15.30;78.20;;;;;;5023694;28;20018;-65
2023/08/31 03:40:29;;;;;;;13.65;9.73;;;15.40;78.30;;;;;;5056102;28;20411;-65
2023/08/31 03:42:55;;;;;;;12.20;8.95;;;15.30;78.20;;;;;;5026199;28;20432;-65
2023/08/31 03:45:21;;;;;;;13.02;9.10;;;15.40;78.30;;;;;;5013506;28;20029;-65
2023/08/31 03:47:47;;;;;;;15.75;9.05;;;15.30;78.20;;;;;;5054667;28;20028;-65
2023/08/31 03:50:13;;;;;;;13.45;9.65;;;15.30;78.30;;;;;;5025386;28;20355;-65
2023/08/31 03:52:38;;;;;;;12.98;9.77;;;15.30;78.20;;;;;;5028524;28;20044;-65
2023/08/31 03:55:05;;;;;;;13.45;9.73;;;15.30;78.30;;;;;;5054544;28;20022;-65
2023/08/31 03:57:32;;;;;;;13.40;10.18;;;15.30;78.40;;;;;;5025136;28;20116;-65
2023/08/31 04:00:08;;;;;;;13.00;9.75;;;15.20;78.40;;;;;;5026249;28;20025;-65
2023/08/31 04:02:42;;;;;;;16.08;10.27;;;15.20;78.40;;;;;;5029079;28;20121;-65
2023/08/31 04:05:09;;;;;;;13.50;9.88;;;15.20;78.50;;;;;;5027674;28;20056;-65
2023/08/31 04:07:35;;;;;;;15.20;10.02;;;15.20;78.50;;;;;;5025669;28;20026;-65
2023/08/31 04:10:02;;;;;;;12.23;10.00;;;15.20;78.60;;;;;;5027379;28;20437;-65
2023/08/31 04:12:29;;;;;;;16.92;10.73;;;15.20;78.70;;;;;;5027277;28;20099;-65
2023/08/31 04:14:55;;;;;;;14.75;10.52;;;15.20;78.70;;;;;;5026243;28;20459;-65
2023/08/31 04:17:21;;;;;;;13.75;10.02;;;15.20;78.80;;;;;;5026762;28;20163;-65
2023/08/31 04:19:46;;;;;;;16.15;9.82;;;15.20;78.90;;;;;;5027172;28;20045;-65
2023/08/31 04:22:12;;;;;;;13.23;9.20;;;15.20;78.90;;;;;;5031991;28;20033;-65
2023/08/31 04:24:38;;;;;;;15.38;10.57;;;15.20;78.90;;;;;;5027700;28;20021;-65
2023/08/31 04:27:04;;;;;;;14.02;10.10;;;15.20;79.00;;;;;;5026361;28;20121;-64
2023/08/31 04:29:29;;;;;;;13.30;9.52;;;15.20;79.00;;;;;;5030897;28;20089;-65
2023/08/31 04:31:55;;;;;;;13.75;8.77;;;15.20;79.00;;;;;;5026214;28;20034;-64
2023/08/31 04:34:21;;;;;;;12.63;8.77;;;15.20;79.00;;;;;;5030668;28;20030;-64
2023/08/31 04:36:47;;;;;;;11.90;8.85;;;15.20;79.10;;;;;;5013883;28;20085;-64
2023/08/31 04:39:13;;;;;;;13.02;9.02;;;15.20;79.10;;;;;;5030448;28;20116;-65
2023/08/31 04:41:39;;;;;;;12.60;8.27;;;15.20;79.20;;;;;;5025243;28;20418;-65
2023/08/31 04:44:05;;;;;;;12.43;7.55;;;15.20;79.10;;;;;;5026971;28;20151;-66
2023/08/31 04:46:30;;;;;;;12.20;8.15;;;15.20;79.60;;;;;;5027977;28;20351;-65
2023/08/31 04:48:56;;;;;;;11.88;7.93;;;15.30;79.20;;;;;;5033092;28;20120;-64
2023/08/31 04:51:32;;;;;;;13.60;8.55;;;15.20;79.10;;;;;;5025144;28;20121;-66
2023/08/31 04:53:59;;;;;;;12.50;7.85;;;15.30;79.20;;;;;;5024900;28;20411;-66
2023/08/31 04:56:24;;;;;;;12.38;7.32;;;15.30;79.20;;;;;;5030871;28;20048;-67
2023/08/31 04:58:50;;;;;;;12.77;7.47;;;15.30;79.20;;;;;;5025775;28;20029;-67
2023/08/31 05:01:16;;;;;;;14.02;7.55;;;15.30;79.30;;;;;;5023997;28;20136;-67
2023/08/31 05:03:42;;;;;;;12.15;8.10;;;15.30;79.40;;;;;;5028992;28;20025;-67
2023/08/31 05:06:07;;;;;;;13.32;7.95;;;15.30;79.40;;;;;;5029437;28;20029;-67
2023/08/31 05:08:33;;;;;;;11.02;7.50;;;15.30;79.60;;;;;;5033241;28;20073;-66
2023/08/31 05:10:59;;;;;;;11.90;7.43;;;15.40;79.70;;;;;;5033935;28;20029;-65
2023/08/31 05:13:25;;;;;;;14.13;7.35;;;15.30;79.70;;;;;;5028801;28;20053;-66
2023/08/31 05:15:51;;;;;;;12.57;7.70;;;15.30;79.70;;;;;;5030035;28;20052;-66
2023/08/31 05:18:16;;;;;;;13.05;7.93;;;15.30;79.80;;;;;;5030014;28;20435;-65
2023/08/31 05:20:48;;;;;;;12.48;7.53;;;15.40;80.00;;;;;;5059886;28;20031;-65
2023/08/31 05:23:14;;;;;;;12.88;8.05;;;15.40;80.00;;;;;;5024919;28;20037;-65
2023/08/31 05:25:46;;;;;;;12.93;8.07;;;15.40;80.00;;;;;;5028621;28;20024;-65
2023/08/31 05:28:12;;;;;;;13.15;8.10;;;15.40;80.10;;;;;;5055959;28;20129;-65
2023/08/31 05:30:53;;;;;;;12.23;8.55;;;15.40;80.10;;;;;;5027197;28;20033;-65
2023/08/31 05:33:20;;;;;;;13.88;8.30;;;15.40;80.30;;;;;;5028795;28;20030;-65
2023/08/31 05:35:46;;;;;;;15.00;9.55;;;15.40;80.30;;;;;;5027606;28;20029;-65
2023/08/31 05:38:12;;;;;;;14.13;9.15;;;15.40;80.50;;;;;;5030153;28;20287;-65
2023/08/31 05:40:38;;;;;;;13.85;9.52;;;15.30;80.60;;;;;;5025747;28;20446;-65
2023/08/31 05:43:04;;;;;;;13.45;8.63;;;15.30;80.60;;;;;;5027341;28;20045;-66
2023/08/31 05:45:34;;;;;;;16.30;9.85;;;15.30;80.60;;;;;;5029667;28;20021;-65
2023/08/31 05:48:00;;;;;;;14.13;9.48;;;15.40;80.80;;;;;;5028892;28;20017;-66
2023/08/31 05:50:30;;;;;;;12.77;9.27;;;15.40;80.80;;;;;;5027244;28;20029;-64
2023/08/31 05:52:56;;;;;;;16.73;10.20;;;15.40;80.90;;;;;;5041360;28;20433;-66
2023/08/31 05:55:22;;;;;;;13.75;10.38;;;15.50;80.90;;;;;;5027376;28;20037;-68
2023/08/31 05:57:48;;;;;;;13.25;9.75;;;15.50;81.00;;;;;;5027872;28;20192;-66
2023/08/31 06:00:15;;;;;;;13.55;9.88;;;15.50;81.00;;;;;;5028104;28;20179;-67
2023/08/31 06:02:41;;;;;;;13.90;10.35;;;15.50;81.00;;;;;;5021574;28;20059;-69
2023/08/31 06:05:07;;;;;;;13.23;9.75;;;15.50;81.00;;;;;;5020707;28;20382;-69
2023/08/31 06:07:33;;;;;;;14.98;10.75;;;15.60;81.10;;;;;;5020255;28;20473;-68
2023/08/31 06:09:59;;;;;;;14.50;10.20;;;15.50;81.10;;;;;;5025441;28;20022;-69
2023/08/31 06:12:25;;;;;;;14.20;10.00;;;15.60;81.10;;;;;;5022618;28;20033;-69
2023/08/31 06:14:50;;;;;;;15.10;10.57;;;15.60;81.20;;;;;;5030280;28;20041;-69
2023/08/31 06:17:16;;;;;;;13.88;9.98;;;15.60;81.30;;;;;;5017301;28;20320;-69
2023/08/31 06:19:42;;;;;;;12.52;10.55;;;15.60;81.20;;;;;;5022182;28;20087;-69
2023/08/31 06:22:08;;;;;;;13.95;11.07;;;15.60;81.10;;;;;;5016595;28;20373;-70
2023/08/31 06:24:35;;;;;;;14.27;10.52;;;15.60;81.10;;;;;;5024204;28;20090;-70
2023/08/31 06:27:01;;;;;;;12.50;9.68;;;15.60;81.10;;;;;;5027414;28;20072;-67
2023/08/31 06:29:26;;;;;;;14.90;10.90;;;15.60;81.10;;;;;;5028884;28;20401;-67
2023/08/31 06:31:52;;;;;;;13.60;10.35;;;15.60;81.20;;;;;;5032196;28;20505;-67
2023/08/31 06:34:18;;;;;;;15.77;11.00;;;15.60;81.20;;;;;;5036196;28;20065;-67
2023/08/31 06:36:44;;;;;;;13.85;9.85;;;15.80;81.20;;;;;;5031178;28;20025;-65
2023/08/31 06:39:10;;;;;;;13.65;9.30;;;16.20;80.50;;;;;;5037730;28;20029;-66
2023/08/31 06:41:35;;;;;;;11.55;9.10;;;16.50;79.80;;;;;;5039317;28;20029;-66
2023/08/31 06:44:05;;;;;;;13.45;9.05;;;16.60;79.50;;;;;;5039512;28;20037;-66
2023/08/31 06:46:37;;;;;;;11.77;8.80;;;16.80;79.40;;;;;;5036338;28;20098;-66
2023/08/31 06:49:04;;;;;;;10.90;8.35;;;17.00;79.20;;;;;;5023023;28;20037;-65
2023/08/31 06:51:34;;;;;;;11.88;8.02;;;17.10;78.90;;;;;;5035881;28;20150;-65
2023/08/31 06:54:09;;;;;;;11.07;7.40;;;17.00;78.80;;;;;;5037357;28;20053;-65
2023/08/31 06:56:35;;;;;;;13.32;8.50;;;16.80;79.60;;;;;;5028145;28;20037;-65
2023/08/31 06:59:02;;;;;;;13.10;8.45;;;16.70;79.20;;;;;;5026299;28;20120;-65
2023/08/31 07:01:29;;;;;;;13.13;8.35;;;16.50;79.50;;;;;;5042016;28;20342;-65
2023/08/31 07:03:55;;;;;;;11.65;8.35;;;16.40;79.80;;;;;;5045559;28;20029;-65
2023/08/31 07:06:21;;;;;;;13.82;8.68;;;16.30;80.00;;;;;;5031185;28;20029;-65
2023/08/31 07:08:47;;;;;;;11.82;8.63;;;16.30;80.20;;;;;;5037806;28;20013;-65
2023/08/31 07:11:14;;;;;;;12.70;9.38;;;16.20;80.30;;;;;;5009923;28;20029;-65
2023/08/31 07:13:41;;;;;;;13.50;10.27;;;16.20;80.50;;;;;;5029646;28;20338;-65
2023/08/31 07:16:07;;;;;;;13.77;9.43;;;16.10;80.50;;;;;;5026008;28;20030;-65
2023/08/31 07:18:32;;;;;;;14.27;9.48;;;16.20;80.60;;;;;;5066040;28;20030;-65
2023/08/31 07:20:58;;;;;;;15.13;10.23;;;16.30;80.50;;;;;;5040228;28;20029;-65
2023/08/31 07:23:24;;;;;;;12.55;9.93;;;16.30;80.50;;;;;;5028810;28;20099;-65
2023/08/31 07:25:50;;;;;;;12.18;9.77;;;16.30;80.50;;;;;;5027915;28;20133;-66
2023/08/31 07:28:15;;;;;;;13.85;9.82;;;16.30;80.70;;;;;;5031760;28;20338;-65
2023/08/31 07:30:41;;;;;;;14.13;9.48;;;16.30;80.70;;;;;;5043620;28;20457;-65
2023/08/31 07:33:07;;;;;;;13.10;9.32;;;16.30;80.80;;;;;;5019943;28;20450;-65
2023/08/31 07:35:33;;;;;;;12.98;8.90;;;16.30;80.80;;;;;;5028144;28;20403;-64
2023/08/31 07:37:59;;;;;;;12.70;8.98;;;16.30;80.80;;;;;;5029450;28;20085;-65
2023/08/31 07:40:25;;;;;;;12.70;8.70;;;16.20;80.80;;;;;;5034797;28;20524;-65
2023/08/31 07:42:51;;;;;;;15.23;8.65;;;16.20;80.90;;;;;;5034916;28;20038;-65
2023/08/31 07:45:17;;;;;;;15.30;8.00;;;16.10;81.00;;;;;;5032055;28;20461;-65
2023/08/31 07:47:43;;;;;;;12.32;9.00;;;16.10;81.10;;;;;;5032499;28;20018;-65
2023/08/31 07:50:09;;;;;;;11.13;7.55;;;16.20;81.10;;;;;;5016409;28;20520;-65
2023/08/31 07:52:35;;;;;;;14.18;8.50;;;16.40;81.00;;;;;;5051329;28;20034;-65
2023/08/31 07:55:01;;;;;;;12.82;8.43;;;16.60;80.70;;;;;;5032240;28;20040;-65
2023/08/31 07:57:27;;;;;;;11.15;7.47;;;16.70;80.70;;;;;;5035159;28;20108;-64
2023/08/31 07:59:53;;;;;;;13.85;7.60;;;16.70;80.70;;;;;;5026208;28;20426;-64
2023/08/31 08:02:19;;;;;;;11.32;7.18;;;16.60;80.70;;;;;;5027150;28;20022;-64
2023/08/31 08:04:47;;;;;;;13.77;7.90;;;16.60;80.80;;;;;;5023288;28;20371;-64
2023/08/31 08:07:13;;;;;;;13.57;7.45;;;16.60;81.60;;;;;;5034843;28;20021;-66
2023/08/31 08:09:39;;;;;;;12.73;7.57;;;16.50;81.00;;;;;;5017905;28;20392;-65
2023/08/31 08:12:05;;;;;;;13.38;7.35;;;16.50;81.10;;;;;;5039377;28;20071;-65
2023/08/31 08:14:30;;;;;;;13.68;7.13;;;16.50;81.30;;;;;;5038301;28;20032;-65
2023/08/31 08:16:56;;;;;;;11.60;7.68;;;16.50;81.30;;;;;;5035992;28;20025;-69
2023/08/31 08:19:25;;;;;;;12.77;7.82;;;16.50;81.30;;;;;;5033908;28;20030;-69
2023/08/31 08:21:51;;;;;;;13.65;8.80;;;16.50;81.40;;;;;;5034892;28;20363;-68
2023/08/31 08:24:17;;;;;;;12.38;8.00;;;16.50;81.50;;;;;;5033358;28;20022;-68
2023/08/31 08:26:42;;;;;;;12.32;8.27;;;16.50;81.50;;;;;;5029930;28;20079;-69
2023/08/31 08:29:08;;;;;;;12.55;8.30;;;16.50;81.60;;;;;;5034511;28;20030;-69
2023/08/31 08:31:34;;;;;;;12.32;7.95;;;16.50;81.60;;;;;;5034655;28;20033;-69
2023/08/31 08:34:00;;;;;;;13.38;7.95;;;16.60;81.50;;;;;;5051583;28;20033;-68
2023/08/31 08:36:26;;;;;;;11.18;7.68;;;16.90;81.50;;;;;;5030243;28;20087;-69
2023/08/31 08:38:51;;;;;;;12.27;7.57;;;17.20;81.00;;;;;;5027190;28;20033;-69
2023/08/31 08:41:27;;;;;;;14.13;8.32;;;17.50;80.70;;;;;;5045100;28;20387;-68
2023/08/31 08:43:53;;;;;;;10.48;7.57;;;17.80;79.80;;;;;;5043855;28;20050;-69
2023/08/31 08:46:19;;;;;;;13.45;8.20;;;17.90;79.40;;;;;;5020619;28;20025;-69
2023/08/31 08:48:47;;;;;;;11.68;7.57;;;17.90;79.40;;;;;;5021902;28;20033;-68
2023/08/31 08:51:13;;;;;;;10.57;7.28;;;17.80;79.50;;;;;;5029343;28;20043;-69
2023/08/31 08:53:43;;;;;;;12.15;7.35;;;17.90;79.60;;;;;;5035264;28;20417;-68
2023/08/31 08:56:09;;;;;;;10.50;7.38;;;17.90;79.50;;;;;;5028528;28;20065;-68
2023/08/31 08:58:34;;;;;;;12.40;7.28;;;17.90;79.50;;;;;;5033925;28;20412;-69
2023/08/31 09:01:02;;;;;;;9.52;6.47;;;17.90;79.60;;;;;;5035254;28;20029;-69
2023/08/31 09:03:27;;;;;;;10.95;7.68;;;17.90;79.60;;;;;;5043760;28;20021;-70
2023/08/31 09:05:53;;;;;;;11.07;7.30;;;18.00;79.50;;;;;;5037198;28;20028;-69
2023/08/31 09:08:26;;;;;;;11.82;6.43;;;18.10;79.40;;;;;;5034471;28;20021;-68
2023/08/31 09:10:52;;;;;;;11.13;7.43;;;18.30;79.20;;;;;;5042607;28;20386;-69
2023/08/31 09:13:18;;;;;;;11.02;7.20;;;18.50;78.90;;;;;;5026317;28;20082;-69
2023/08/31 09:15:48;;;;;;;11.07;7.25;;;18.50;78.70;;;;;;5035207;28;20029;-69
2023/08/31 09:18:28;;;;;;;10.15;6.85;;;18.60;78.70;;;;;;5027099;28;20505;-68
2023/08/31 09:20:58;;;;;;;10.45;5.55;;;18.70;78.80;;;;;;5028415;28;20033;-69
2023/08/31 09:23:25;;;;;;;9.82;5.85;;;18.80;78.50;;;;;;5043319;28;20026;-69
2023/08/31 09:25:53;;;;;;;9.93;6.22;;;19.10;77.90;;;;;;5024961;28;20025;-65
2023/08/31 09:28:21;;;;;;;9.80;5.15;;;19.20;77.50;;;;;;5026900;28;20029;-66
2023/08/31 09:30:49;;;;;;;10.55;4.85;;;19.40;77.00;;;;;;5023244;28;20439;-66
2023/08/31 09:33:16;;;;;;;8.93;4.78;;;19.70;76.50;;;;;;5035004;28;20033;-67
2023/08/31 09:35:53;;;;;;;11.35;4.88;;;20.00;75.80;;;;;;5028905;28;20021;-67
2023/08/31 09:38:19;;;;;;;9.30;4.70;;;20.00;75.50;;;;;;5023542;28;20017;-67
2023/08/31 09:40:45;;;;;;;8.05;5.10;;;20.10;75.50;;;;;;5028842;28;20040;-67
2023/08/31 09:43:11;;;;;;;7.50;4.05;;;20.20;75.30;;;;;;5027559;28;20066;-67
2023/08/31 09:45:38;;;;;;;8.68;3.85;;;20.40;74.90;;;;;;5011364;28;20033;-67
2023/08/31 09:48:05;;;;;;;7.35;3.90;;;20.60;74.00;;;;;;5012457;28;20375;-67
2023/08/31 09:50:32;;;;;;;8.75;3.40;;;20.70;73.70;;;;;;5024057;28;20037;-67
2023/08/31 09:53:09;;;;;;;7.68;3.45;;;20.70;73.50;;;;;;5015970;28;20032;-67
2023/08/31 09:55:37;;;;;;;7.80;3.50;;;20.90;73.00;;;;;;5032346;28;20049;-67
2023/08/31 09:58:06;;;;;;;6.63;3.40;;;20.90;72.60;;;;;;5027277;28;20091;-67
2023/08/31 10:00:35;;;;;;;10.88;4.10;;;20.80;72.50;;;;;;5012589;28;20064;-67
2023/08/31 10:03:03;;;;;;;6.25;3.30;;;20.60;72.60;;;;;;5040459;28;20042;-67
2023/08/31 10:05:29;;;;;;;8.60;3.78;;;20.40;72.70;;;;;;5026697;28;20506;-69
2023/08/31 10:07:56;;;;;;;7.95;4.07;;;20.60;72.70;;;;;;5011598;28;20116;-67
2023/08/31 10:10:22;;;;;;;8.48;3.33;;;20.50;72.40;;;;;;5026862;28;20033;-68
2023/08/31 10:12:49;;;;;;;7.97;3.70;;;20.30;72.40;;;;;;5024591;28;20026;-68
2023/08/31 10:15:19;;;;;;;8.25;3.72;;;20.00;72.60;;;;;;5011745;28;20040;-68
2023/08/31 10:17:45;;;;;;;8.43;3.28;;;19.80;72.90;;;;;;5001363;28;20129;-68
2023/08/31 10:20:14;;;;;;;8.63;4.00;;;19.60;73.20;;;;;;5027613;28;20175;-66
2023/08/31 10:22:40;;;;;;;8.68;3.40;;;19.50;73.50;;;;;;5025601;28;20030;-68
2023/08/31 10:25:07;;;;;;;7.43;3.47;;;19.30;73.50;;;;;;5026418;28;20033;-68
2023/08/31 10:27:40;;;;;;;9.18;3.78;;;19.20;73.80;;;;;;5008205;28;20406;-69
2023/08/31 10:30:21;;;;;;;7.53;3.72;;;19.10;74.90;;;;;;5025373;28;21691;-67
2023/08/31 10:33:19;;;;;;;7.45;3.35;;;19.10;74.30;;;;;;5028981;28;20038;-66
2023/08/31 10:35:49;;;;;;;7.68;3.38;;;19.00;74.50;;;;;;5024669;28;20025;-66
2023/08/31 10:38:25;;;;;;;7.55;3.33;;;18.90;74.60;;;;;;5028518;28;20041;-66
2023/08/31 10:41:21;;;;;;;6.88;3.40;;;18.90;74.80;;;;;;5026659;28;20130;-67
2023/08/31 10:43:57;;;;;;;7.07;3.00;;;19.20;74.20;;;;;;5030390;28;20053;-66
2023/08/31 10:46:35;;;;;;;7.70;2.97;;;19.30;73.70;;;;;;5026434;28;20033;-66
2023/08/31 10:49:14;;;;;;;5.90;2.70;;;19.60;73.00;;;;;;5021426;28;20021;-67
2023/08/31 10:51:42;;;;;;;5.60;2.40;;;19.90;72.30;;;;;;5026216;28;20108;-66
2023/08/31 10:54:13;;;;;;;6.03;2.35;;;20.10;71.70;;;;;;5025615;28;20021;-66
2023/08/31 10:57:06;;;;;;;5.65;2.10;;;20.30;70.90;;;;;;5037793;28;20033;-65
2023/08/31 10:59:45;;;;;;;4.22;1.70;;;20.40;70.30;;;;;;5017233;28;20041;-65
2023/08/31 11:02:26;;;;;;;6.85;2.35;;;20.60;69.90;;;;;;5025637;28;20045;-67
2023/08/31 11:04:54;;;;;;;4.25;1.60;;;20.80;69.40;;;;;;5027501;28;20017;-66
2023/08/31 11:07:24;;;;;;;4.88;1.90;;;21.10;68.70;;;;;;5026833;28;20036;-66
2023/08/31 11:09:49;;;;;;;5.40;2.13;;;21.30;67.90;;;;;;5032866;28;20025;-66
2023/08/31 11:12:15;;;;;;;5.90;1.95;;;21.50;67.40;;;;;;5066255;28;20095;-66
2023/08/31 11:14:42;;;;;;;4.60;1.45;;;21.60;66.90;;;;;;5035070;28;20128;-66
2023/08/31 11:17:08;;;;;;;4.90;1.85;;;21.70;66.40;;;;;;5038079;28;20322;-66
2023/08/31 11:19:35;;;;;;;5.95;2.00;;;21.80;65.90;;;;;;5038539;28;20112;-66
2023/08/31 11:22:02;;;;;;;5.60;1.58;;;21.90;65.20;;;;;;5044580;28;20167;-66
2023/08/31 11:24:32;;;;;;;3.88;1.63;;;22.00;64.60;;;;;;5044631;28;20040;-66
2023/08/31 11:26:57;;;;;;;5.93;1.83;;;22.00;63.90;;;;;;5056820;28;20022;-66
2023/08/31 11:29:23;;;;;;;5.65;1.55;;;22.10;63.40;;;;;;5042837;28;20331;-66
2023/08/31 11:31:49;;;;;;;3.63;1.80;;;22.10;63.30;;;;;;5040823;28;20033;-66
2023/08/31 11:34:17;;;;;;;6.82;2.05;;;22.20;63.10;;;;;;5045695;28;20030;-66
2023/08/31 11:36:44;;;;;;;5.57;1.80;;;22.40;62.90;;;;;;5040885;28;20054;-66
2023/08/31 11:39:13;;;;;;;5.55;1.70;;;22.50;62.50;;;;;;5046202;28;20022;-65
2023/08/31 11:41:43;;;;;;;4.00;1.58;;;22.40;62.20;;;;;;5038252;28;20038;-66
2023/08/31 11:44:13;;;;;;;3.20;1.43;;;22.40;62.40;;;;;;5044079;28;20045;-66
2023/08/31 11:46:41;;;;;;;5.95;1.77;;;22.50;62.20;;;;;;5040801;28;20116;-66
2023/08/31 11:49:07;;;;;;;3.72;1.35;;;22.50;61.10;;;;;;5021479;28;20030;-66
2023/08/31 11:51:35;;;;;;;2.20;1.20;;;22.50;60.10;;;;;;5031671;28;20474;-66
2023/08/31 11:54:04;;;;;;;2.42;0.90;;;22.50;59.40;;;;;;5040668;28;20442;-65
2023/08/31 11:56:51;;;;;;;4.72;1.25;;;22.40;58.80;;;;;;5046278;28;20022;-65
2023/08/31 11:59:18;;;;;;;1.15;0.73;;;22.40;58.70;;;;;;5037810;28;20073;-65
2023/08/31 12:01:47;;;;;;;3.80;1.20;;;22.50;58.60;;;;;;5016006;28;20034;-65
2023/08/31 12:04:20;;;;;;;2.95;1.17;;;22.50;58.20;;;;;;5026623;28;20108;-65
2023/08/31 12:07:04;;;;;;;3.72;1.20;;;22.50;57.80;;;;;;5035421;28;20025;-65
2023/08/31 12:09:30;;;;;;;2.97;1.10;;;22.50;56.80;;;;;;5036890;28;20402;-64
2023/08/31 12:11:56;;;;;;;5.30;1.15;;;22.50;56.70;;;;;;5024324;28;20036;-66
2023/08/31 12:14:23;;;;;;;2.55;1.00;;;22.40;56.30;;;;;;5048677;28;20371;-66
2023/08/31 12:16:50;;;;;;;2.22;1.15;;;22.30;56.10;;;;;;5035450;28;20091;-67
2023/08/31 12:19:16;;;;;;;3.13;0.82;;;22.30;55.90;;;;;;5034584;28;20048;-66
2023/08/31 12:21:46;;;;;;;4.13;1.33;;;22.30;55.40;;;;;;5032130;28;20017;-66
2023/08/31 12:24:12;;;;;;;4.43;1.33;;;22.30;55.30;;;;;;5023868;28;20034;-66
2023/08/31 12:26:38;;;;;;;3.03;0.95;;;22.30;55.50;;;;;;5034908;28;20041;-66
2023/08/31 12:29:05;;;;;;;2.80;0.98;;;22.30;55.60;;;;;;5026436;28;20055;-66
2023/08/31 12:31:32;;;;;;;4.55;1.30;;;22.30;55.40;;;;;;5034973;28;20486;-66
2023/08/31 12:33:58;;;;;;;2.88;1.00;;;22.30;55.20;;;;;;5027636;28;20040;-66
2023/08/31 12:36:24;;;;;;;3.50;1.02;;;22.30;55.20;;;;;;5034542;28;20061;-66
2023/08/31 12:38:50;;;;;;;2.83;0.80;;;22.30;54.90;;;;;;5025223;28;20092;-66
2023/08/31 12:41:19;;;;;;;4.57;1.23;;;22.30;54.80;;;;;;5031379;28;20035;-66
2023/08/31 12:43:45;;;;;;;3.30;1.00;;;22.30;54.40;;;;;;5033638;28;20509;-66
2023/08/31 12:46:13;;;;;;;3.17;1.02;;;22.20;54.40;;;;;;5028476;28;20033;-66